Time;durP1;ratioP1;P1;durP2;ratioP2;P2;SDS_P1;SDS_P2;PMS_P1;PMS_P2;Temp;Humidity;BMP_temperature;BMP_pressure;BME280_temperature;BME280_humidity;BME280_pressure;Samples;Min_cycle;Max_cycle;Signal;HPM_P1;HPM_P2
2023/03/26 00:01:14;;;;;;;12.80;2.70;;;;;;;6.10;98.41;99856.88;5027857;28;20272;-72
2023/03/26 00:03:43;;;;;;;8.30;3.30;;;;;;;6.03;98.84;99862.88;5021421;28;20668;-73
2023/03/26 00:06:12;;;;;;;7.10;4.07;;;;;;;5.98;99.43;99870.59;5026054;28;20200;-72
2023/03/26 00:08:41;;;;;;;5.97;4.30;;;;;;;5.93;99.81;99869.63;5025686;28;20193;-73
2023/03/26 00:11:09;;;;;;;8.00;4.13;;;;;;;5.89;99.92;99863.41;5025431;28;20250;-74
2023/03/26 00:13:36;;;;;;;11.50;4.03;;;;;;;5.82;100.00;99871.09;5028995;28;20255;-72
2023/03/26 00:16:03;;;;;;;7.77;2.67;;;;;;;5.73;100.00;99865.63;5026745;28;20276;-73
2023/03/26 00:18:30;;;;;;;4.80;1.60;;;;;;;5.79;100.00;99868.38;5028126;28;20708;-73
2023/03/26 00:20:58;;;;;;;4.87;2.03;;;;;;;5.85;100.00;99863.28;5021172;28;20564;-72
2023/03/26 00:23:25;;;;;;;8.07;2.93;;;;;;;5.91;100.00;99868.69;5024784;28;20252;-72
2023/03/26 00:25:52;;;;;;;10.50;2.00;;;;;;;5.93;100.00;99864.38;5021326;28;20196;-73
2023/03/26 00:28:21;;;;;;;5.57;1.73;;;;;;;5.99;100.00;99861.88;5022559;28;20202;-72
2023/03/26 00:30:49;;;;;;;5.63;1.93;;;;;;;6.04;100.00;99869.91;5024092;28;20739;-73
2023/03/26 00:33:16;;;;;;;3.80;1.90;;;;;;;6.00;100.00;99865.38;5026289;28;20566;-73
2023/03/26 00:35:45;;;;;;;4.10;1.77;;;;;;;5.91;100.00;99866.97;5018438;28;20244;-73
2023/03/26 00:38:13;;;;;;;7.70;2.27;;;;;;;5.99;100.00;99869.75;5022367;28;20210;-76
2023/03/26 00:40:42;;;;;;;7.13;1.73;;;;;;;6.07;100.00;99865.59;5026102;28;20204;-74
2023/03/26 00:43:17;;;;;;;8.63;1.80;;;;;;;6.07;100.00;99860.34;5023321;28;20583;-73
2023/03/26 00:45:53;;;;;;;5.83;1.73;;;;;;;6.13;99.96;99865.72;5025749;28;20191;-74
2023/03/26 00:48:21;;;;;;;4.60;1.57;;;;;;;6.24;99.51;99864.22;5017811;28;20297;-72
2023/03/26 00:51:04;;;;;;;3.60;2.00;;;;;;;6.06;99.91;99865.56;5026258;28;20274;-73
2023/03/26 00:53:32;;;;;;;7.10;1.57;;;;;;;6.06;100.00;99862.94;5026736;28;20239;-72
2023/03/26 00:55:59;;;;;;;6.57;2.10;;;;;;;6.03;100.00;99861.13;5027521;28;20220;-72
2023/03/26 00:58:26;;;;;;;6.03;2.00;;;;;;;6.05;100.00;99859.41;5026524;28;20994;-72
2023/03/26 01:00:56;;;;;;;4.63;1.70;;;;;;;5.94;100.00;99855.63;5030305;28;20217;-72
2023/03/26 01:03:28;;;;;;;5.43;1.60;;;;;;;5.87;100.00;99854.56;5025857;28;20407;-72
2023/03/26 01:06:03;;;;;;;6.57;1.70;;;;;;;5.72;100.00;99853.31;5025347;28;20744;-72
2023/03/26 01:08:37;;;;;;;6.67;2.33;;;;;;;5.58;100.00;99847.72;5024190;28;20200;-73
2023/03/26 01:11:32;;;;;;;7.90;1.70;;;;;;;5.44;100.00;99844.75;5029319;28;20220;-72
2023/03/26 01:14:05;;;;;;;4.00;1.50;;;;;;;5.31;100.00;99845.31;5024177;28;20514;-72
2023/03/26 01:16:45;;;;;;;5.97;2.30;;;;;;;5.26;100.00;99836.44;5024304;28;20789;-72
2023/03/26 01:19:36;;;;;;;7.00;1.63;;;;;;;5.20;100.00;99839.78;5030495;28;20204;-72
2023/03/26 01:22:05;;;;;;;8.20;1.87;;;;;;;5.14;100.00;99841.34;5028032;28;20269;-73
2023/03/26 01:24:32;;;;;;;4.77;1.70;;;;;;;5.19;100.00;99834.47;5022301;28;20673;-72
2023/03/26 01:27:33;;;;;;;5.60;1.60;;;;;;;5.20;100.00;99826.66;5027336;28;20250;-72
2023/03/26 01:30:22;;;;;;;4.87;1.77;;;;;;;5.14;100.00;99836.09;5026900;28;20195;-72
2023/03/26 01:33:14;;;;;;;5.07;1.87;;;;;;;5.11;100.00;99825.53;5029667;28;20660;-72
2023/03/26 01:35:53;;;;;;;5.03;1.67;;;;;;;5.12;100.00;99822.03;5027617;28;20230;-74
2023/03/26 01:38:36;;;;;;;4.50;1.63;;;;;;;5.25;100.00;99818.91;5022600;28;20195;-72
2023/03/26 01:41:10;;;;;;;4.97;1.60;;;;;;;5.25;100.00;99811.03;5025143;28;20241;-72
2023/03/26 01:43:52;;;;;;;4.17;1.97;;;;;;;5.23;100.00;99808.38;5026820;28;20627;-72
2023/03/26 01:46:21;;;;;;;6.47;1.67;;;;;;;5.24;100.00;99812.78;5029218;28;20600;-72
2023/03/26 01:48:48;;;;;;;9.57;1.67;;;;;;;5.25;100.00;99813.66;5029701;28;20192;-72
2023/03/26 01:51:27;;;;;;;5.20;1.80;;;;;;;5.35;100.00;99802.53;5024221;28;20220;-72
2023/03/26 01:53:55;;;;;;;10.00;2.00;;;;;;;5.43;100.00;99805.34;5024389;28;20196;-72
2023/03/26 01:56:44;;;;;;;5.87;1.97;;;;;;;5.54;100.00;99796.84;5022093;28;20707;-72
2023/03/26 01:59:32;;;;;;;5.83;2.13;;;;;;;5.70;100.00;99792.00;5017941;28;20694;-72
2023/03/26 02:02:06;;;;;;;8.77;1.80;;;;;;;5.89;100.00;99781.94;5022529;28;20247;-72
2023/03/26 02:04:42;;;;;;;6.20;1.67;;;;;;;5.95;100.00;99783.81;5028640;28;20570;-72
2023/03/26 02:07:19;;;;;;;5.57;1.70;;;;;;;6.07;100.00;99786.72;5026167;28;22393;-72
2023/03/26 02:10:09;;;;;;;5.73;2.00;;;;;;;6.09;100.00;99782.41;5024981;28;20704;-72
2023/03/26 02:12:36;;;;;;;7.53;1.77;;;;;;;6.12;100.00;99785.09;5022651;28;20438;-72
2023/03/26 02:15:03;;;;;;;7.13;1.87;;;;;;;6.14;100.00;99774.59;5026614;28;20525;-72
2023/03/26 02:17:31;;;;;;;7.67;1.70;;;;;;;6.17;100.00;99769.41;5026017;28;20236;-72
2023/03/26 02:19:57;;;;;;;5.67;1.60;;;;;;;6.16;100.00;99760.63;5027735;28;20194;-72
2023/03/26 02:22:28;;;;;;;5.70;1.73;;;;;;;6.15;100.00;99758.88;5026727;28;20219;-72
2023/03/26 02:24:55;;;;;;;9.73;1.80;;;;;;;6.14;100.00;99753.56;5025957;28;20689;-74
2023/03/26 02:27:21;;;;;;;5.40;1.57;;;;;;;6.20;100.00;99756.31;5024574;28;20194;-72
2023/03/26 02:29:49;;;;;;;5.37;1.60;;;;;;;6.17;100.00;99751.91;5029357;28;20687;-72
2023/03/26 02:32:18;;;;;;;4.87;1.73;;;;;;;6.22;100.00;99749.34;5027882;28;20223;-73
2023/03/26 02:34:44;;;;;;;7.23;1.80;;;;;;;6.25;100.00;99750.31;5026182;28;20203;-72
2023/03/26 02:37:10;;;;;;;7.63;2.10;;;;;;;6.37;100.00;99747.03;5024545;28;20253;-73
2023/03/26 02:39:37;;;;;;;5.53;1.80;;;;;;;6.45;100.00;99749.81;5024522;28;20678;-71
2023/03/26 02:42:03;;;;;;;5.93;1.97;;;;;;;6.47;99.97;99749.00;5029235;28;20261;-73
2023/03/26 02:44:30;;;;;;;3.53;1.40;;;;;;;6.47;99.82;99743.75;5023985;28;20195;-73
2023/03/26 02:46:56;;;;;;;4.97;1.70;;;;;;;6.46;99.62;99739.34;5021081;28;20228;-72
2023/03/26 02:49:23;;;;;;;6.37;1.60;;;;;;;6.54;99.33;99736.84;5027998;28;20661;-72
2023/03/26 02:51:49;;;;;;;6.43;1.90;;;;;;;6.53;99.26;99740.34;5025123;28;20799;-72
2023/03/26 02:54:17;;;;;;;7.67;1.87;;;;;;;6.66;98.35;99737.06;5019248;28;20202;-73
2023/03/26 02:56:43;;;;;;;4.33;1.70;;;;;;;6.64;97.84;99730.88;5019476;28;20316;-72
2023/03/26 02:59:10;;;;;;;7.97;1.53;;;;;;;6.70;97.67;99730.09;5025539;28;20200;-72
2023/03/26 03:01:41;;;;;;;6.03;1.63;;;;;;;6.73;97.54;99722.28;5026972;28;20231;-75
2023/03/26 03:04:10;;;;;;;4.70;1.70;;;;;;;6.91;96.67;99712.09;5022408;28;20199;-72
2023/03/26 03:06:37;;;;;;;5.33;2.03;;;;;;;6.88;96.76;99710.28;5020578;28;20309;-72
2023/03/26 03:09:05;;;;;;;6.03;1.87;;;;;;;6.89;96.56;99708.53;5026580;28;20702;-72
2023/03/26 03:11:32;;;;;;;8.53;1.80;;;;;;;7.02;95.82;99702.59;5022697;28;20578;-72
2023/03/26 03:13:58;;;;;;;7.03;2.20;;;;;;;7.10;95.50;99706.25;5025402;28;20663;-71
2023/03/26 03:16:25;;;;;;;6.87;1.70;;;;;;;7.09;95.61;99704.47;5025052;28;20279;-73
2023/03/26 03:18:53;;;;;;;6.47;1.90;;;;;;;7.08;95.50;99691.28;5029116;28;20199;-73
2023/03/26 03:21:20;;;;;;;6.23;2.00;;;;;;;7.06;95.57;99691.25;5025564;28;20216;-74
2023/03/26 03:23:47;;;;;;;6.83;1.80;;;;;;;7.02;95.51;99693.81;5023315;28;20676;-73
2023/03/26 03:26:16;;;;;;;5.90;1.90;;;;;;;6.95;96.03;99690.22;5027632;28;20663;-72
2023/03/26 03:28:44;;;;;;;5.40;1.90;;;;;;;6.98;95.93;99681.47;5022389;28;20209;-74
2023/03/26 03:31:10;;;;;;;6.63;1.50;;;;;;;6.96;96.04;99688.47;5033360;28;20257;-72
2023/03/26 03:33:36;;;;;;;4.80;1.70;;;;;;;7.00;95.82;99678.00;5031269;28;20193;-73
2023/03/26 03:36:09;;;;;;;6.57;2.00;;;;;;;6.99;95.96;99673.59;5028140;28;20199;-74
2023/03/26 03:38:45;;;;;;;5.07;1.93;;;;;;;6.94;96.39;99671.75;5020416;28;20692;-74
2023/03/26 03:41:11;;;;;;;6.27;1.87;;;;;;;6.85;97.00;99669.88;5021732;28;20265;-72
2023/03/26 03:43:38;;;;;;;6.77;1.60;;;;;;;6.81;97.60;99666.31;5025497;28;20200;-72
2023/03/26 03:46:04;;;;;;;3.60;1.40;;;;;;;6.81;98.08;99668.06;5025271;28;20228;-72
2023/03/26 03:48:32;;;;;;;6.50;1.80;;;;;;;6.80;98.11;99661.88;5021432;28;20197;-72
2023/03/26 03:50:58;;;;;;;6.97;1.97;;;;;;;6.85;98.13;99661.97;5027255;28;20247;-72
2023/03/26 03:53:25;;;;;;;6.70;2.10;;;;;;;6.82;97.72;99661.94;5027619;28;20249;-73
2023/03/26 03:55:53;;;;;;;7.50;2.33;;;;;;;7.00;96.74;99662.22;5023669;28;20279;-72
2023/03/26 03:58:26;;;;;;;10.00;1.70;;;;;;;7.08;96.37;99665.84;5024349;28;20207;-75
2023/03/26 04:00:59;;;;;;;5.53;1.77;;;;;;;7.07;96.16;99650.91;5026876;28;20216;-72
2023/03/26 04:03:26;;;;;;;7.80;2.07;;;;;;;7.03;96.77;99646.47;5024325;28;20206;-72
2023/03/26 04:05:59;;;;;;;7.77;1.83;;;;;;;7.06;97.21;99635.97;5023485;28;20256;-72
2023/03/26 04:08:26;;;;;;;5.53;1.60;;;;;;;7.06;97.16;99640.34;5027684;28;20201;-74
2023/03/26 04:10:52;;;;;;;3.57;1.40;;;;;;;7.07;97.19;99632.47;5025751;28;20231;-72
2023/03/26 04:13:19;;;;;;;6.03;2.20;;;;;;;7.03;97.46;99632.41;5026080;28;20196;-72
2023/03/26 04:15:45;;;;;;;6.23;1.93;;;;;;;6.99;97.38;99622.72;5024221;28;20743;-73
2023/03/26 04:18:11;;;;;;;5.10;1.60;;;;;;;7.02;97.51;99617.47;5024632;28;20217;-72
2023/03/26 04:20:45;;;;;;;10.63;1.90;;;;;;;6.99;97.75;99613.06;5024237;28;20245;-72
2023/03/26 04:23:13;;;;;;;5.53;2.30;;;;;;;7.02;97.94;99607.84;5026105;28;20253;-73
2023/03/26 04:25:47;;;;;;;3.70;1.77;;;;;;;7.08;97.30;99607.91;5027986;28;20212;-72
2023/03/26 04:28:41;;;;;;;5.70;1.93;;;;;;;7.08;97.48;99593.88;5023027;28;20195;-72
2023/03/26 04:31:12;;;;;;;5.90;1.97;;;;;;;6.99;98.00;99593.75;5020520;28;20265;-75
2023/03/26 04:33:39;;;;;;;3.93;1.83;;;;;;;6.90;98.97;99608.53;5032172;28;20201;-74
2023/03/26 04:36:05;;;;;;;5.43;2.00;;;;;;;6.88;99.44;99598.84;5031084;28;20240;-72
2023/03/26 04:38:40;;;;;;;9.47;1.87;;;;;;;6.90;100.00;99581.34;5027651;28;20618;-72
2023/03/26 04:41:12;;;;;;;6.40;2.33;;;;;;;7.01;100.00;99576.22;5024673;28;20641;-75
2023/03/26 04:43:46;;;;;;;5.60;2.20;;;;;;;6.88;100.00;99565.53;5025140;28;20202;-75
2023/03/26 04:46:13;;;;;;;8.80;1.97;;;;;;;6.82;100.00;99554.91;5029715;28;20198;-73
2023/03/26 04:48:39;;;;;;;4.80;1.63;;;;;;;6.79;100.00;99554.84;5029799;28;20256;-75
2023/03/26 04:51:06;;;;;;;8.07;2.17;;;;;;;6.69;100.00;99546.78;5027747;28;20221;-74
2023/03/26 04:53:33;;;;;;;7.07;2.13;;;;;;;6.63;100.00;99544.06;5028614;28;20629;-74
2023/03/26 04:56:07;;;;;;;4.37;1.90;;;;;;;6.60;100.00;99543.16;5025085;28;20425;-75
2023/03/26 04:58:34;;;;;;;7.17;2.27;;;;;;;6.51;100.00;99535.13;5031233;28;20224;-74
2023/03/26 05:01:02;;;;;;;8.83;2.13;;;;;;;6.43;100.00;99526.25;5030328;28;20263;-74
2023/03/26 05:03:39;;;;;;;9.67;2.57;;;;;;;6.44;100.00;99530.66;5022912;28;20267;-74
2023/03/26 05:06:06;;;;;;;4.87;2.00;;;;;;;6.34;100.00;99535.72;5025212;28;20225;-77
2023/03/26 05:08:32;;;;;;;9.27;2.03;;;;;;;6.30;100.00;99519.00;5028535;28;20286;-74
2023/03/26 05:10:59;;;;;;;9.90;2.17;;;;;;;6.27;100.00;99514.56;5025775;28;20285;-73
2023/03/26 05:13:25;;;;;;;5.80;1.97;;;;;;;6.26;100.00;99511.94;5024822;28;20203;-73
2023/03/26 05:15:52;;;;;;;9.40;2.27;;;;;;;6.34;100.00;99497.16;5029890;28;20192;-73
2023/03/26 05:18:18;;;;;;;5.13;2.43;;;;;;;6.33;100.00;99495.38;5030776;28;20273;-75
2023/03/26 05:20:45;;;;;;;7.10;2.20;;;;;;;6.39;100.00;99486.69;5027869;28;20714;-75
2023/03/26 05:23:11;;;;;;;5.73;2.43;;;;;;;6.42;100.00;99476.25;5027694;28;20220;-74
2023/03/26 05:25:38;;;;;;;10.53;2.33;;;;;;;6.43;100.00;99467.50;5030241;28;20205;-73
2023/03/26 05:28:04;;;;;;;7.83;2.03;;;;;;;6.41;100.00;99475.38;5029461;28;20226;-77
2023/03/26 05:30:31;;;;;;;9.60;2.33;;;;;;;6.41;100.00;99462.22;5021916;28;20199;-73
2023/03/26 05:32:57;;;;;;;8.03;2.47;;;;;;;6.40;100.00;99460.44;5030088;28;20204;-74
2023/03/26 05:35:24;;;;;;;8.80;2.30;;;;;;;6.44;100.00;99449.13;5027464;28;20727;-74
2023/03/26 05:37:50;;;;;;;7.60;2.37;;;;;;;6.43;100.00;99434.22;5024318;28;20476;-73
2023/03/26 05:40:17;;;;;;;6.77;2.13;;;;;;;6.36;100.00;99468.25;5027014;28;20196;-75
2023/03/26 05:42:44;;;;;;;9.40;2.33;;;;;;;6.33;100.00;99473.47;5030785;28;20757;-73
2023/03/26 05:45:12;;;;;;;9.50;2.70;;;;;;;6.37;100.00;99470.00;5026277;28;20205;-74
2023/03/26 05:47:39;;;;;;;6.40;2.40;;;;;;;6.37;100.00;99475.28;5028735;28;20195;-77
2023/03/26 05:50:06;;;;;;;5.90;2.50;;;;;;;6.41;100.00;99470.13;5028947;28;20208;-74
2023/03/26 05:52:32;;;;;;;10.17;3.10;;;;;;;6.46;100.00;99449.16;5030484;28;20254;-75
2023/03/26 05:54:59;;;;;;;7.10;3.03;;;;;;;6.50;100.00;99446.56;5021581;28;20282;-74
2023/03/26 05:57:28;;;;;;;10.27;2.80;;;;;;;6.55;100.00;99439.63;5025015;28;20226;-77
2023/03/26 05:59:55;;;;;;;8.83;3.70;;;;;;;6.62;100.00;99437.97;5028423;28;20248;-75
2023/03/26 06:02:22;;;;;;;14.57;3.80;;;;;;;6.65;100.00;99435.38;5024597;28;20214;-75
2023/03/26 06:04:49;;;;;;;18.20;5.73;;;;;;;6.69;100.00;99421.38;5028536;28;20676;-74
2023/03/26 06:07:17;;;;;;;20.37;4.70;;;;;;;6.79;100.00;99420.63;5021154;28;20216;-76
2023/03/26 06:09:43;;;;;;;5.67;2.47;;;;;;;6.85;100.00;99414.59;5030748;28;20201;-74
2023/03/26 06:12:10;;;;;;;7.93;2.67;;;;;;;6.93;100.00;99412.06;5023773;28;20213;-74
2023/03/26 06:14:36;;;;;;;13.67;3.00;;;;;;;6.95;100.00;99416.47;5029818;28;20239;-74
2023/03/26 06:17:03;;;;;;;6.70;2.77;;;;;;;6.91;100.00;99418.19;5021764;28;20285;-74
2023/03/26 06:19:29;;;;;;;8.63;2.50;;;;;;;6.88;100.00;99402.34;5024915;28;20205;-74
2023/03/26 06:21:56;;;;;;;7.30;2.47;;;;;;;6.96;100.00;99406.81;5024085;28;20220;-76
2023/03/26 06:24:22;;;;;;;9.97;3.20;;;;;;;7.07;100.00;99403.44;5026894;28;20227;-77
2023/03/26 06:26:49;;;;;;;11.20;3.50;;;;;;;7.15;100.00;99395.63;5025900;28;20204;-75
2023/03/26 06:29:15;;;;;;;7.13;2.50;;;;;;;7.14;100.00;99396.50;5023054;28;20244;-75
2023/03/26 06:31:41;;;;;;;6.00;2.67;;;;;;;7.13;100.00;99381.56;5025293;28;20257;-75
2023/03/26 06:34:08;;;;;;;11.03;3.07;;;;;;;7.11;100.00;99383.28;5021323;28;20327;-75
2023/03/26 06:36:34;;;;;;;10.50;2.80;;;;;;;7.11;100.00;99388.56;5018488;28;20201;-74
2023/03/26 06:39:00;;;;;;;6.97;2.87;;;;;;;7.14;100.00;99378.06;5025139;28;20252;-78
2023/03/26 06:41:34;;;;;;;8.60;3.00;;;;;;;7.18;100.00;99383.38;5021814;28;20647;-75
2023/03/26 06:44:00;;;;;;;6.30;2.57;;;;;;;7.18;100.00;99386.00;5028942;28;20231;-74
2023/03/26 06:46:26;;;;;;;7.47;2.37;;;;;;;7.18;100.00;99388.63;5025596;28;20285;-74
2023/03/26 06:48:53;;;;;;;8.40;2.60;;;;;;;7.19;100.00;99389.53;5023899;28;20261;-77
2023/03/26 06:51:19;;;;;;;9.03;2.53;;;;;;;7.29;100.00;99388.78;5025763;28;20218;-75
2023/03/26 06:53:46;;;;;;;7.73;2.77;;;;;;;7.32;100.00;99382.66;5028446;28;20214;-75
2023/03/26 06:56:12;;;;;;;8.27;3.03;;;;;;;7.39;100.00;99385.34;5024285;28;20231;-76
2023/03/26 06:58:38;;;;;;;9.10;3.00;;;;;;;7.41;100.00;99370.44;5027402;28;20219;-75
2023/03/26 07:01:05;;;;;;;8.53;2.93;;;;;;;7.44;100.00;99367.84;5029416;28;20212;-75
2023/03/26 07:03:32;;;;;;;8.03;2.90;;;;;;;7.40;100.00;99352.88;5024197;28;20209;-76
2023/03/26 07:05:58;;;;;;;5.53;2.70;;;;;;;7.42;100.00;99353.78;5026783;28;20206;-75
2023/03/26 07:08:25;;;;;;;7.63;2.57;;;;;;;7.46;100.00;99346.78;5029684;28;20192;-74
2023/03/26 07:10:51;;;;;;;13.97;2.97;;;;;;;7.44;100.00;99341.50;5024882;28;20237;-78
2023/03/26 07:13:18;;;;;;;7.53;2.57;;;;;;;7.43;100.00;99339.75;5025111;28;20204;-75
2023/03/26 07:15:49;;;;;;;9.23;2.67;;;;;;;7.52;100.00;99338.94;5022672;28;20227;-75
2023/03/26 07:18:16;;;;;;;9.30;3.60;;;;;;;7.60;100.00;99323.19;5019131;28;20219;-77
2023/03/26 07:20:44;;;;;;;16.53;3.47;;;;;;;7.60;100.00;99315.28;5026052;28;20204;-75
2023/03/26 07:23:12;;;;;;;9.57;2.70;;;;;;;7.60;100.00;99304.75;5030295;28;20663;-75
2023/03/26 07:25:39;;;;;;;12.40;3.10;;;;;;;7.55;100.00;99315.25;5021831;28;20242;-75
2023/03/26 07:28:12;;;;;;;11.07;3.53;;;;;;;7.55;100.00;99315.25;5028350;28;20195;-76
2023/03/26 07:31:03;;;;;;;12.57;4.00;;;;;;;7.56;100.00;99309.09;5029408;28;20200;-75
2023/03/26 07:33:38;;;;;;;8.53;3.20;;;;;;;7.55;100.00;99305.59;5031622;28;20199;-75
2023/03/26 07:36:18;;;;;;;7.67;3.20;;;;;;;7.58;100.00;99293.31;5029161;28;20203;-76
2023/03/26 07:38:55;;;;;;;9.30;3.10;;;;;;;7.66;100.00;99291.63;5022664;28;20214;-75
2023/03/26 07:41:28;;;;;;;10.00;2.77;;;;;;;7.62;100.00;99288.09;5026852;28;20219;-74
2023/03/26 07:44:13;;;;;;;9.07;2.80;;;;;;;7.62;100.00;99279.31;5022338;28;20256;-75
2023/03/26 07:46:40;;;;;;;11.00;3.43;;;;;;;7.53;100.00;99273.09;5025549;28;20193;-76
2023/03/26 07:49:11;;;;;;;8.40;3.20;;;;;;;7.53;100.00;99272.19;5025746;28;20225;-74
2023/03/26 07:51:38;;;;;;;11.93;3.43;;;;;;;7.58;100.00;99267.84;5028399;28;20236;-75
2023/03/26 07:54:05;;;;;;;10.53;3.50;;;;;;;7.60;100.00;99266.09;5024933;28;20209;-76
2023/03/26 07:56:53;;;;;;;12.93;3.00;;;;;;;7.54;100.00;99266.94;5030511;28;20198;-75
2023/03/26 07:59:30;;;;;;;8.47;2.93;;;;;;;7.49;100.00;99273.06;5026125;28;20198;-75
2023/03/26 08:02:18;;;;;;;8.83;3.10;;;;;;;7.50;100.00;99267.78;5028435;28;20322;-75
2023/03/26 08:04:56;;;;;;;7.87;2.93;;;;;;;7.44;100.00;99264.22;5026566;28;20290;-75
2023/03/26 08:07:30;;;;;;;8.93;3.13;;;;;;;7.46;100.00;99265.13;5027509;28;20193;-75
2023/03/26 08:10:11;;;;;;;11.00;4.50;;;;;;;7.45;100.00;99264.25;5028184;28;20206;-75
2023/03/26 08:13:05;;;;;;;13.87;4.50;;;;;;;7.52;100.00;99262.53;5025633;28;20223;-76
2023/03/26 08:15:59;;;;;;;10.30;3.73;;;;;;;7.60;100.00;99260.81;5026296;28;20241;-75
2023/03/26 08:18:34;;;;;;;12.87;5.30;;;;;;;7.70;100.00;99260.03;5031168;28;20273;-75
2023/03/26 08:21:19;;;;;;;9.10;4.27;;;;;;;7.80;100.00;99253.06;5028363;28;20229;-74
2023/03/26 08:23:54;;;;;;;12.53;5.50;;;;;;;7.81;100.00;99255.72;5029562;28;20768;-80
2023/03/26 08:26:40;;;;;;;21.60;8.07;;;;;;;7.85;100.00;99256.63;5028972;28;20198;-75
2023/03/26 08:29:28;;;;;;;21.07;8.73;;;;;;;7.87;100.00;99265.41;5029490;28;20199;-75
2023/03/26 08:31:56;;;;;;;14.90;5.20;;;;;;;7.80;100.00;99266.25;5024695;28;20216;-75
2023/03/26 08:34:22;;;;;;;13.90;5.00;;;;;;;7.81;100.00;99263.63;5029114;28;20655;-74
2023/03/26 08:36:49;;;;;;;16.50;5.90;;;;;;;7.83;100.00;99253.97;5025514;28;20612;-75
2023/03/26 08:39:15;;;;;;;15.83;4.83;;;;;;;7.86;100.00;99247.84;5029251;28;20797;-74
2023/03/26 08:42:17;;;;;;;7.30;4.00;;;;;;;7.97;100.00;99239.97;5028435;28;20237;-76
2023/03/26 08:45:18;;;;;;;12.87;5.23;;;;;;;7.99;100.00;99238.22;4989784;28;20583;-74
2023/03/26 08:48:09;;;;;;;15.47;6.40;;;;;;;8.05;100.00;99239.16;5025436;28;20242;-78
2023/03/26 08:51:15;;;;;;;21.30;5.70;;;;;;;8.09;100.00;99229.50;5031009;28;20207;-74
2023/03/26 08:54:06;;;;;;;9.47;4.47;;;;;;;8.15;100.00;99221.63;5028131;28;20203;-77
2023/03/26 08:56:51;;;;;;;10.50;4.17;;;;;;;8.29;100.00;99219.91;5028246;28;20237;-76
2023/03/26 08:59:49;;;;;;;15.47;4.23;;;;;;;8.40;100.00;99227.88;5030107;28;20625;-74
2023/03/26 09:02:37;;;;;;;8.37;2.90;;;;;;;8.40;100.00;99236.69;5027932;28;20222;-75
2023/03/26 09:05:36;;;;;;;7.93;3.00;;;;;;;8.40;100.00;99238.44;5027001;28;20192;-76
2023/03/26 09:08:33;;;;;;;8.17;3.30;;;;;;;8.35;100.00;99230.50;5028812;28;20223;-75
2023/03/26 09:11:14;;;;;;;10.83;3.00;;;;;;;8.41;100.00;99225.28;5026314;28;20223;-77
2023/03/26 09:13:52;;;;;;;10.07;3.13;;;;;;;8.49;100.00;99214.75;5026519;28;20249;-75
2023/03/26 09:16:52;;;;;;;6.57;2.97;;;;;;;8.59;100.00;99205.09;5029840;28;20197;-74
2023/03/26 09:19:53;;;;;;;6.83;3.00;;;;;;;8.75;100.00;99204.22;5043428;28;20275;-74
2023/03/26 09:22:40;;;;;;;6.10;3.07;;;;;;;8.94;100.00;99198.09;5032098;28;20252;-74
2023/03/26 09:25:28;;;;;;;6.97;3.17;;;;;;;9.18;100.00;99194.56;5029124;28;20195;-75
2023/03/26 09:28:19;;;;;;;10.67;5.43;;;;;;;9.44;99.93;99173.41;5030831;28;20578;-75
2023/03/26 09:31:15;;;;;;;11.57;4.50;;;;;;;9.73;99.36;99171.59;5012626;28;20667;-74
2023/03/26 09:34:05;;;;;;;9.23;3.93;;;;;;;10.10;95.75;99183.81;5019376;28;20212;-75
2023/03/26 09:36:53;;;;;;;9.10;4.00;;;;;;;10.22;93.99;99175.84;5029988;28;20266;-75
2023/03/26 09:39:34;;;;;;;11.23;4.27;;;;;;;10.09;93.51;99179.41;5026069;28;20231;-75
2023/03/26 09:42:07;;;;;;;6.67;2.97;;;;;;;9.98;92.54;99190.91;5027216;28;20253;-74
2023/03/26 09:44:55;;;;;;;6.80;2.60;;;;;;;9.72;92.49;99185.72;5023591;28;20206;-74
2023/03/26 09:47:39;;;;;;;8.27;2.83;;;;;;;9.52;93.42;99178.69;5027506;28;20224;-74
2023/03/26 09:50:24;;;;;;;5.63;2.50;;;;;;;9.59;92.61;99176.03;5025445;28;20194;-75
2023/03/26 09:53:00;;;;;;;9.83;2.93;;;;;;;9.72;92.87;99174.25;5022849;28;20368;-74
2023/03/26 09:55:41;;;;;;;5.63;3.10;;;;;;;9.79;93.02;99178.63;5026658;28;20217;-75
2023/03/26 09:58:32;;;;;;;5.57;2.43;;;;;;;9.76;92.56;99176.00;5026617;28;20207;-76
2023/03/26 10:01:32;;;;;;;3.57;2.60;;;;;;;9.57;93.64;99174.28;5016991;28;20247;-75
2023/03/26 10:04:31;;;;;;;5.10;3.00;;;;;;;9.76;93.99;99183.06;5025584;28;20250;-77
2023/03/26 10:07:03;;;;;;;5.70;2.80;;;;;;;9.94;96.29;99167.13;5024081;28;20210;-75
2023/03/26 10:09:32;;;;;;;8.27;3.00;;;;;;;10.36;94.67;99158.13;5031032;28;20201;-74
2023/03/26 10:12:21;;;;;;;8.70;2.80;;;;;;;10.71;90.83;99142.03;5023819;28;20226;-72
2023/03/26 10:15:09;;;;;;;8.83;2.40;;;;;;;11.30;89.00;99148.63;5020121;28;20217;-72
2023/03/26 10:17:49;;;;;;;6.07;2.13;;;;;;;11.62;86.59;99137.69;5027709;28;20204;-72
2023/03/26 10:20:32;;;;;;;5.97;2.07;;;;;;;11.55;84.40;99136.84;5025095;28;20199;-73
2023/03/26 10:23:06;;;;;;;3.83;2.20;;;;;;;11.59;84.70;99135.91;5018092;28;20212;-72
2023/03/26 10:25:57;;;;;;;4.73;2.03;;;;;;;11.66;85.18;99128.78;5027506;28;20222;-72
2023/03/26 10:28:43;;;;;;;4.10;1.73;;;;;;;12.09;83.33;99136.28;5027523;28;20640;-72
2023/03/26 10:31:41;;;;;;;3.90;2.00;;;;;;;12.05;83.19;99126.59;5025044;28;20228;-72
2023/03/26 10:34:43;;;;;;;6.70;2.20;;;;;;;11.99;83.69;99106.28;5029174;28;20227;-73
2023/03/26 10:37:35;;;;;;;5.70;2.33;;;;;;;11.83;83.72;99110.94;5023984;28;20233;-74
2023/03/26 10:40:32;;;;;;;7.43;2.13;;;;;;;11.63;84.95;99120.00;5024045;28;20221;-73
2023/03/26 10:43:35;;;;;;;3.73;2.17;;;;;;;11.54;86.12;99115.66;5026493;28;20567;-73
2023/03/26 10:46:24;;;;;;;6.73;2.13;;;;;;;11.89;85.72;99104.66;5025462;28;20267;-73
2023/03/26 10:49:02;;;;;;;6.17;2.13;;;;;;;12.07;86.29;99103.56;5027255;28;20650;-73
2023/03/26 10:51:35;;;;;;;4.93;2.00;;;;;;;12.20;85.39;99097.19;5028058;28;20313;-72
2023/03/26 10:54:11;;;;;;;3.30;2.10;;;;;;;12.24;84.19;99112.16;5026606;28;20196;-75
2023/03/26 10:56:44;;;;;;;4.90;2.30;;;;;;;12.29;87.61;99102.34;5027532;28;20202;-73
2023/03/26 10:59:13;;;;;;;5.07;1.90;;;;;;;12.41;87.51;99090.72;5027471;28;20265;-73
2023/03/26 11:01:51;;;;;;;5.23;2.10;;;;;;;13.08;84.10;99081.63;5027249;28;20227;-75
2023/03/26 11:04:47;;;;;;;7.27;1.97;;;;;;;13.79;78.81;99082.06;5024406;28;20214;-79
2023/03/26 11:07:31;;;;;;;2.50;1.50;;;;;;;14.52;75.45;99080.47;5026245;28;20553;-81
2023/03/26 11:10:05;;;;;;;5.77;2.23;;;;;;;15.43;74.30;99081.72;5019287;28;20277;-79
2023/03/26 11:12:58;;;;;;;3.27;2.03;;;;;;;15.90;67.80;99070.59;5021174;28;20256;-74
2023/03/26 11:15:53;;;;;;;4.33;2.60;;;;;;;15.82;67.76;99085.09;5020580;28;20273;-74
2023/03/26 11:18:35;;;;;;;7.57;2.30;;;;;;;15.32;67.53;99085.56;5027687;28;20599;-74
2023/03/26 11:21:21;;;;;;;3.27;1.70;;;;;;;14.33;75.19;99089.75;5026651;28;20215;-73
2023/03/26 11:24:11;;;;;;;4.93;1.70;;;;;;;13.87;76.20;99095.22;5024354;28;20236;-78
2023/03/26 11:26:38;;;;;;;4.93;1.93;;;;;;;13.58;77.92;99079.81;5024658;28;20203;-80
2023/03/26 11:29:18;;;;;;;4.50;1.60;;;;;;;13.07;76.83;99080.75;5025870;28;20253;-81
2023/03/26 11:32:11;;;;;;;4.07;1.70;;;;;;;12.67;81.60;99080.53;5023960;28;20222;-78
2023/03/26 11:34:55;;;;;;;4.00;1.40;;;;;;;12.36;79.57;99082.78;5007883;28;20202;-72
2023/03/26 11:37:37;;;;;;;1.90;1.10;;;;;;;11.93;82.32;99082.50;5021244;28;20197;-72
2023/03/26 11:40:38;;;;;;;4.70;2.23;;;;;;;11.76;86.72;99079.16;5024520;28;20327;-73
2023/03/26 11:43:13;;;;;;;3.77;1.20;;;;;;;11.21;85.62;99072.72;5019004;28;20227;-74
2023/03/26 11:45:45;;;;;;;2.60;1.20;;;;;;;11.53;86.39;99063.53;5022140;28;20257;-73
2023/03/26 11:48:22;;;;;;;5.07;2.10;;;;;;;11.95;86.37;99058.59;5025389;28;20233;-73
2023/03/26 11:50:54;;;;;;;5.77;3.23;;;;;;;12.35;85.29;99062.44;5020330;28;20254;-74
2023/03/26 11:53:26;;;;;;;2.67;1.70;;;;;;;12.97;83.43;99059.69;5024127;28;20260;-73
2023/03/26 11:56:13;;;;;;;4.30;1.30;;;;;;;13.34;77.70;99052.81;5021380;28;20375;-74
2023/03/26 11:58:53;;;;;;;2.83;1.43;;;;;;;13.95;79.62;99053.34;5021974;28;20230;-74
2023/03/26 12:01:31;;;;;;;2.93;1.30;;;;;;;14.26;74.93;99053.53;5026823;28;20819;-74
2023/03/26 12:04:04;;;;;;;2.23;1.03;;;;;;;14.65;77.38;99049.97;5024482;28;20195;-82
2023/03/26 12:06:31;;;;;;;2.63;1.10;;;;;;;14.56;72.20;99041.31;5025503;28;20199;-83
2023/03/26 12:08:58;;;;;;;1.83;1.00;;;;;;;14.48;71.25;99041.50;5030029;28;20219;-85